NFG Airport (Camp Pendleton Mcas (Munn Field)) Information

FAA: NFG - ICAO: KNFG

NFG Airport Location

State California
County San Diego
City Oceanside
NFG Airport is 6 miles north of Oceanside, CA.
Latitude 33-18-04.5204N
Longitude 117-21-18.6000W
Elevation 77ft

KNFG Airport METARs

METAR KNFG 020052Z 22004KT 10SM CLR 17/01 A3014 RMK AO2 SLP206 T01670006 $
Altimeter 30.14"
Temperature 16.7°C (62.1°F)
Wind 220° at 4KT
Clouds Skies are clear.
Visibility 10.0mi
Time observed: 2023-02-02T00:52:00Z

NFG Airport Details

Status Operational
Activation December 1945
Ownership Military - Navy
Usage Private
Chart LOS ANGELES
ATC on-site Yes
Beacon schedule sunset-sunrise
Beacon color split clear green

NFG Airport Contacts

Owner US NAVY
Owner address OCEANOGRAPHIC OFC - CODE 3142, WASHINGTON, DC 20373
Owner phone N/A
Manager EARL STROTMAN
Manager address 747 FIFTY SECOND ST, OAKLAND, CA 94609-1809
Manager phone (510) 428-3000

NFG Airport (Camp Pendleton Mcas (Munn Field)) Radio Frequencies

NFG (Airport) Radio Frequencies

UNICOM N/A
Common traffic advisory frequency (CTAF) N/A